Time;durP1;ratioP1;P1;durP2;ratioP2;P2;SDS_P1;SDS_P2;PMS_P1;PMS_P2;Temp;Humidity;BMP_temperature;BMP_pressure;BME280_temperature;BME280_humidity;BME280_pressure;Samples;Min_cycle;Max_cycle;Signal;HPM_P1;HPM_P2
2022/03/25 00:01:45;;;;;;;58.05;16.95;;;;;;;-0.18;72.32;99868.53;6043408;23;20098;-78
2022/03/25 00:04:11;;;;;;;56.72;15.68;;;;;;;-0.34;74.86;99868.47;6046430;23;20114;-79
2022/03/25 00:06:37;;;;;;;62.28;14.57;;;;;;;-0.48;76.45;99871.78;6000778;23;20027;-76
2022/03/25 00:09:03;;;;;;;52.58;15.32;;;;;;;-0.53;76.66;99863.22;6023609;23;20090;-77
2022/03/25 00:11:28;;;;;;;59.00;15.88;;;;;;;-0.52;76.32;99875.53;6022968;23;20168;-77
2022/03/25 00:13:54;;;;;;;58.05;16.08;;;;;;;-0.55;75.92;99865.06;6023131;23;20027;-77
2022/03/25 00:16:21;;;;;;;52.75;18.10;;;;;;;-0.55;74.69;99859.75;6022228;23;20034;-76
2022/03/25 00:18:46;;;;;;;53.05;16.10;;;;;;;-0.66;75.54;99856.78;5999422;23;20031;-78
2022/03/25 00:21:12;;;;;;;62.67;16.77;;;;;;;-0.70;76.15;99877.31;6045261;23;20177;-76
2022/03/25 00:23:38;;;;;;;54.67;16.30;;;;;;;-0.61;76.74;99865.38;6022279;23;20563;-77
2022/03/25 00:26:05;;;;;;;57.65;16.30;;;;;;;-0.44;76.93;99868.03;6024132;23;20019;-77
2022/03/25 00:28:31;;;;;;;52.45;16.50;;;;;;;-0.54;75.71;99866.81;6050533;23;20030;-75
2022/03/25 00:30:58;;;;;;;63.72;16.25;;;;;;;-0.52;76.69;99871.09;6051272;23;20078;-77
2022/03/25 00:33:24;;;;;;;52.33;17.42;;;;;;;-0.56;75.90;99884.59;6027064;23;20030;-77
2022/03/25 00:35:50;;;;;;;66.00;16.85;;;;;;;-0.69;76.47;99878.19;6004117;23;20046;-76
2022/03/25 00:38:16;;;;;;;64.72;16.88;;;;;;;-0.85;76.46;99878.06;6002208;23;20019;-78
2022/03/25 00:40:43;;;;;;;57.92;17.95;;;;;;;-0.90;76.75;99878.28;6027555;23;20026;-77
2022/03/25 00:43:11;;;;;;;58.38;16.67;;;;;;;-0.92;76.24;99872.16;6052935;23;20106;-78
2022/03/25 00:45:37;;;;;;;71.15;21.45;;;;;;;-0.95;75.09;99875.00;6025191;23;20033;-77
2022/03/25 00:48:03;;;;;;;58.88;19.30;;;;;;;-0.88;75.48;99879.03;6049994;23;20233;-76
2022/03/25 00:50:29;;;;;;;65.55;19.13;;;;;;;-0.78;74.70;99874.16;6043898;23;20464;-76
2022/03/25 00:52:55;;;;;;;54.72;17.27;;;;;;;-0.85;75.82;99873.59;6045660;23;20027;-78
2022/03/25 00:55:21;;;;;;;60.90;18.20;;;;;;;-0.97;76.45;99867.09;5997442;23;20161;-77
2022/03/25 00:57:47;;;;;;;59.05;17.45;;;;;;;-0.93;76.55;99865.16;6021684;23;20091;-78
2022/03/25 01:00:13;;;;;;;51.88;17.83;;;;;;;-0.96;76.55;99870.59;6021633;23;20074;-77
2022/03/25 01:02:39;;;;;;;61.97;19.13;;;;;;;-0.88;74.59;99876.38;5998539;23;20086;-77
2022/03/25 01:05:06;;;;;;;63.20;20.58;;;;;;;-0.83;74.70;99863.78;5997566;23;20041;-78
2022/03/25 01:07:34;;;;;;;71.90;19.50;;;;;;;-0.77;73.94;99866.16;5997388;23;20019;-77
2022/03/25 01:10:00;;;;;;;66.82;19.85;;;;;;;-0.76;73.25;99870.50;6023117;23;20052;-76
2022/03/25 01:12:26;;;;;;;63.35;19.10;;;;;;;-0.76;74.08;99865.19;6029103;23;20468;-74
2022/03/25 01:14:52;;;;;;;56.45;18.80;;;;;;;-0.80;76.52;99862.78;6026802;23;20079;-78
2022/03/25 01:17:18;;;;;;;55.08;18.73;;;;;;;-0.99;76.59;99854.81;6019769;23;20023;-75
2022/03/25 01:19:45;;;;;;;52.83;18.70;;;;;;;-0.98;77.52;99859.22;6018741;23;20047;-75
2022/03/25 01:22:11;;;;;;;65.93;19.80;;;;;;;-0.97;76.80;99869.75;5996074;23;20369;-78
2022/03/25 01:24:37;;;;;;;60.83;17.58;;;;;;;-1.04;77.76;99863.00;6019102;23;20053;-76
2022/03/25 01:27:04;;;;;;;54.45;17.88;;;;;;;-1.00;78.10;99861.06;6019074;23;20039;-77
2022/03/25 01:29:30;;;;;;;63.10;18.90;;;;;;;-1.03;76.95;99850.59;6018053;23;20106;-76
2022/03/25 01:31:56;;;;;;;57.95;17.63;;;;;;;-1.23;78.83;99836.50;5996588;23;20046;-77
2022/03/25 01:34:23;;;;;;;56.28;17.65;;;;;;;-1.15;77.94;99853.84;6020025;23;20027;-76
2022/03/25 01:36:49;;;;;;;64.05;20.10;;;;;;;-1.16;78.30;99852.13;6021526;23;20049;-77
2022/03/25 01:39:15;;;;;;;66.82;20.67;;;;;;;-1.23;77.29;99857.72;6022732;23;20115;-75
2022/03/25 01:41:41;;;;;;;59.50;21.60;;;;;;;-1.25;76.80;99848.97;6021084;23;20030;-76
2022/03/25 01:44:09;;;;;;;57.95;17.95;;;;;;;-1.23;75.43;99855.06;5996981;23;20141;-75
2022/03/25 01:46:35;;;;;;;58.75;19.33;;;;;;;-1.15;73.96;99857.34;6044495;23;20027;-76
2022/03/25 01:49:02;;;;;;;61.70;21.88;;;;;;;-1.24;74.91;99853.34;6020979;23;20026;-75
2022/03/25 01:51:33;;;;;;;60.13;18.77;;;;;;;-1.18;74.06;99851.34;6021735;23;20038;-75
2022/03/25 01:54:32;;;;;;;58.78;19.83;;;;;;;-1.28;73.55;99840.28;6025647;23;20030;-75
2022/03/25 01:57:03;;;;;;;50.88;18.52;;;;;;;-1.19;73.25;99857.56;6001674;23;20050;-76
2022/03/25 01:59:30;;;;;;;54.05;17.65;;;;;;;-1.18;73.35;99849.53;6045132;23;20069;-75
2022/03/25 02:01:57;;;;;;;61.13;19.67;;;;;;;-1.12;72.50;99864.31;6019925;23;20027;-76
2022/03/25 02:04:24;;;;;;;45.10;18.77;;;;;;;-1.05;71.77;99863.09;6019582;23;20468;-76
2022/03/25 02:06:50;;;;;;;57.92;18.25;;;;;;;-1.05;72.36;99863.09;6021031;23;20033;-78
2022/03/25 02:09:17;;;;;;;50.47;16.98;;;;;;;-1.02;72.19;99860.31;6020368;23;20033;-76
2022/03/25 02:11:43;;;;;;;57.20;18.90;;;;;;;-1.03;72.72;99863.88;6045309;23;20079;-77
2022/03/25 02:14:11;;;;;;;52.50;18.05;;;;;;;-1.03;72.32;99869.16;6044198;23;20070;-76
2022/03/25 02:16:39;;;;;;;51.92;16.90;;;;;;;-0.93;71.39;99874.91;6045801;23;20083;-76
2022/03/25 02:19:05;;;;;;;48.15;16.38;;;;;;;-0.89;71.22;99880.00;6067570;23;20026;-76
2022/03/25 02:21:33;;;;;;;40.30;16.27;;;;;;;-0.90;71.68;99886.25;6019306;23;20478;-77
2022/03/25 02:24:00;;;;;;;49.53;18.15;;;;;;;-1.05;73.67;99885.16;6018814;23;20029;-77
2022/03/25 02:26:28;;;;;;;60.83;19.17;;;;;;;-1.13;74.76;99886.44;5995422;23;20027;-77
2022/03/25 02:28:55;;;;;;;63.03;21.15;;;;;;;-1.24;76.48;99877.22;6020378;23;20374;-76
2022/03/25 02:31:21;;;;;;;58.05;18.13;;;;;;;-1.25;74.60;99883.44;5995094;23;20090;-75
2022/03/25 02:33:47;;;;;;;53.05;17.50;;;;;;;-1.11;73.22;99881.94;6019589;23;20125;-78
2022/03/25 02:36:13;;;;;;;49.58;16.98;;;;;;;-1.17;72.24;99869.84;6019349;23;20033;-76
2022/03/25 02:38:39;;;;;;;49.40;15.30;;;;;;;-0.97;72.21;99882.16;6020055;23;20034;-79
2022/03/25 02:41:05;;;;;;;52.90;18.23;;;;;;;-0.96;72.61;99881.22;6019572;23;20027;-78
2022/03/25 02:43:31;;;;;;;45.67;15.90;;;;;;;-0.95;73.39;99888.25;6019502;23;20312;-76
2022/03/25 02:46:03;;;;;;;50.38;16.65;;;;;;;-1.00;75.41;99884.94;6018382;23;20022;-76
2022/03/25 02:48:28;;;;;;;52.05;18.98;;;;;;;-1.04;75.41;99878.06;6018072;23;20083;-75
2022/03/25 02:50:55;;;;;;;57.63;18.17;;;;;;;-1.03;75.96;99885.09;6016907;23;20113;-76
2022/03/25 02:53:21;;;;;;;46.83;19.20;;;;;;;-1.05;75.21;99892.28;6016796;23;20473;-75
2022/03/25 02:55:47;;;;;;;62.35;19.08;;;;;;;-1.04;75.89;99888.69;5994337;23;20373;-75
2022/03/25 02:58:13;;;;;;;41.65;16.67;;;;;;;-0.95;73.05;99893.56;5993926;23;20114;-76
2022/03/25 03:00:39;;;;;;;52.00;17.55;;;;;;;-0.95;73.27;99893.56;5993965;23;20051;-75
2022/03/25 03:03:05;;;;;;;48.42;16.77;;;;;;;-0.99;73.43;99891.97;5993719;23;20030;-75
2022/03/25 03:05:31;;;;;;;54.08;16.83;;;;;;;-1.01;72.90;99889.41;6018070;23;20022;-75
2022/03/25 03:07:58;;;;;;;52.08;20.00;;;;;;;-1.06;74.00;99890.53;5994651;23;20030;-75
2022/03/25 03:10:24;;;;;;;68.75;19.80;;;;;;;-1.03;74.93;99901.00;6017301;23;20322;-75
2022/03/25 03:12:52;;;;;;;56.10;19.58;;;;;;;-1.20;76.09;99890.34;6020032;23;20117;-76
2022/03/25 03:15:18;;;;;;;60.58;17.60;;;;;;;-1.19;76.49;99897.38;6018477;23;20043;-76
2022/03/25 03:17:45;;;;;;;56.00;19.50;;;;;;;-1.18;76.06;99899.06;6018007;23;20027;-75
2022/03/25 03:20:12;;;;;;;62.00;20.20;;;;;;;-1.32;77.09;99905.88;6017242;23;20037;-76
2022/03/25 03:22:38;;;;;;;51.65;19.52;;;;;;;-1.33;77.11;99898.84;6036720;23;20027;-75
2022/03/25 03:25:04;;;;;;;50.38;19.17;;;;;;;-1.39;77.35;99908.88;5991171;23;20099;-75
2022/03/25 03:27:30;;;;;;;55.13;18.45;;;;;;;-1.41;76.92;99885.09;5975706;23;20070;-76
2022/03/25 03:29:56;;;;;;;55.42;19.10;;;;;;;-1.22;76.65;99904.50;6051170;23;20026;-75
2022/03/25 03:32:23;;;;;;;71.35;21.13;;;;;;;-1.14;76.29;99898.84;6006679;23;20026;-75
2022/03/25 03:34:49;;;;;;;56.30;19.95;;;;;;;-1.07;76.37;99902.09;6033104;23;20026;-75
2022/03/25 03:37:15;;;;;;;50.55;17.27;;;;;;;-0.98;74.96;99899.00;6004101;23;20019;-76
2022/03/25 03:39:41;;;;;;;48.13;16.92;;;;;;;-0.92;74.60;99909.31;6004933;23;20034;-75
2022/03/25 03:42:08;;;;;;;47.63;17.25;;;;;;;-0.77;73.98;99908.63;5998732;23;20030;-77
2022/03/25 03:44:36;;;;;;;52.88;17.58;;;;;;;-0.63;73.46;99909.72;6000542;23;20067;-76
2022/03/25 03:47:03;;;;;;;58.40;18.33;;;;;;;-0.60;74.78;99910.44;6022264;23;20071;-75
2022/03/25 03:49:29;;;;;;;59.38;19.52;;;;;;;-0.56;75.84;99924.44;6045191;23;20031;-75
2022/03/25 03:51:55;;;;;;;59.95;17.60;;;;;;;-0.61;76.52;99926.44;5995663;23;20054;-75
2022/03/25 03:54:21;;;;;;;53.88;17.88;;;;;;;-0.55;76.82;99920.81;5993722;23;20026;-75
2022/03/25 03:56:47;;;;;;;57.17;19.73;;;;;;;-0.39;75.79;99919.16;6016983;23;20077;-76
2022/03/25 03:59:13;;;;;;;53.63;19.60;;;;;;;-0.34;74.56;99906.50;6016057;23;20476;-75
2022/03/25 04:01:39;;;;;;;51.83;18.35;;;;;;;-0.18;73.99;99913.69;6041120;23;20022;-75
2022/03/25 04:04:05;;;;;;;54.47;20.35;;;;;;;-0.18;72.99;99916.34;5993139;23;20018;-76
2022/03/25 04:06:31;;;;;;;46.55;19.08;;;;;;;0.01;71.97;99911.84;6017250;23;20155;-77
2022/03/25 04:08:57;;;;;;;54.28;18.05;;;;;;;0.08;72.17;99907.94;6017371;23;20091;-75
2022/03/25 04:11:23;;;;;;;51.50;19.70;;;;;;;0.24;72.79;99916.81;6017120;23;20077;-76
2022/03/25 04:13:49;;;;;;;63.60;21.20;;;;;;;0.32;71.65;99911.09;6016307;23;20136;-75
2022/03/25 04:16:15;;;;;;;69.43;20.15;;;;;;;0.29;71.47;99913.91;6016326;23;20083;-76
2022/03/25 04:18:41;;;;;;;65.32;17.42;;;;;;;0.40;70.08;99902.72;6040051;23;20034;-76
2022/03/25 04:21:07;;;;;;;67.15;18.50;;;;;;;0.58;70.88;99907.06;6016695;23;20041;-76
2022/03/25 04:23:33;;;;;;;69.57;19.65;;;;;;;0.58;70.33;99909.72;6041889;23;20033;-75
2022/03/25 04:25:59;;;;;;;73.55;21.45;;;;;;;0.81;70.77;99912.97;6017281;23;20071;-75
2022/03/25 04:28:28;;;;;;;46.95;20.00;;;;;;;0.88;70.88;99909.03;6016942;23;20027;-75
2022/03/25 04:30:54;;;;;;;57.42;18.63;;;;;;;0.96;70.65;99914.81;6018349;23;20113;-76
2022/03/25 04:33:20;;;;;;;46.03;17.60;;;;;;;0.88;67.23;99901.91;6018009;23;20027;-76
2022/03/25 04:35:46;;;;;;;51.30;16.67;;;;;;;0.86;65.98;99911.78;5995637;23;20078;-75
2022/03/25 04:38:12;;;;;;;63.17;19.10;;;;;;;0.92;66.77;99916.78;6042115;23;20543;-76
2022/03/25 04:40:38;;;;;;;58.83;18.98;;;;;;;0.96;67.22;99910.34;6018920;23;20137;-76
2022/03/25 04:43:04;;;;;;;58.92;17.88;;;;;;;0.92;67.14;99897.28;5996033;23;20030;-75
2022/03/25 04:45:31;;;;;;;54.70;17.35;;;;;;;0.95;67.28;99905.97;6023579;23;20026;-76
2022/03/25 04:47:58;;;;;;;71.03;20.00;;;;;;;0.97;66.06;99889.91;6047462;23;20022;-75
2022/03/25 04:50:24;;;;;;;78.72;19.77;;;;;;;1.10;65.23;99892.75;5999589;23;20026;-75
2022/03/25 04:52:50;;;;;;;66.40;20.13;;;;;;;1.23;64.27;99903.56;6021705;23;20034;-75
2022/03/25 04:55:17;;;;;;;61.10;18.05;;;;;;;1.25;63.48;99891.03;6023686;23;20034;-74
2022/03/25 04:57:43;;;;;;;65.85;18.40;;;;;;;1.38;63.29;99908.00;6045596;23;20125;-76
2022/03/25 05:00:10;;;;;;;65.55;19.73;;;;;;;1.40;63.01;99900.81;5999291;23;20034;-75
2022/03/25 05:02:37;;;;;;;60.47;20.23;;;;;;;1.34;63.00;99898.47;6031358;23;20078;-80
2022/03/25 05:05:03;;;;;;;71.57;20.05;;;;;;;1.44;62.56;99902.34;6011564;23;20032;-79
2022/03/25 05:07:30;;;;;;;54.00;16.88;;;;;;;1.47;62.56;99880.00;6038564;23;20034;-79
2022/03/25 05:10:00;;;;;;;63.25;16.05;;;;;;;1.63;61.18;99900.34;6035017;23;20366;-78
2022/03/25 05:12:30;;;;;;;50.10;15.80;;;;;;;1.79;61.81;99905.66;6031497;23;20030;-75
2022/03/25 05:14:56;;;;;;;57.42;17.02;;;;;;;1.85;60.95;99907.94;6026197;23;20030;-75
2022/03/25 05:17:22;;;;;;;44.80;15.50;;;;;;;1.96;60.57;99904.66;6026704;23;20031;-79
2022/03/25 05:19:48;;;;;;;69.50;17.27;;;;;;;2.14;61.14;99898.22;6001084;23;20038;-78
2022/03/25 05:22:14;;;;;;;59.22;17.45;;;;;;;2.06;60.98;99911.16;6032965;23;20114;-74
2022/03/25 05:24:42;;;;;;;63.00;16.38;;;;;;;2.02;61.26;99908.78;6050700;23;20134;-78
2022/03/25 05:27:07;;;;;;;54.65;17.33;;;;;;;2.07;61.76;99906.69;6046455;23;20086;-77
2022/03/25 05:29:33;;;;;;;63.60;17.65;;;;;;;2.21;61.59;99904.06;6023703;23;20103;-76
2022/03/25 05:31:59;;;;;;;52.13;16.08;;;;;;;2.31;60.82;99909.69;6022391;23;20030;-69
2022/03/25 05:34:25;;;;;;;65.10;18.05;;;;;;;2.36;60.26;99902.28;6040874;23;20029;-78
2022/03/25 05:36:51;;;;;;;49.40;16.27;;;;;;;2.40;59.76;99903.78;6012358;23;20010;-76
2022/03/25 05:39:17;;;;;;;50.97;17.00;;;;;;;2.42;58.85;99896.56;6027255;23;20453;-75
2022/03/25 05:41:43;;;;;;;46.88;15.13;;;;;;;2.47;58.76;99904.28;6021137;23;20026;-79
2022/03/25 05:44:09;;;;;;;59.97;16.25;;;;;;;2.63;59.08;99913.94;6044962;23;20061;-75
2022/03/25 05:46:35;;;;;;;52.67;15.55;;;;;;;2.80;58.39;99912.03;6022986;23;20135;-74
2022/03/25 05:49:02;;;;;;;56.35;15.30;;;;;;;2.94;58.38;99912.00;6019497;23;20045;-73
2022/03/25 05:51:29;;;;;;;45.88;15.80;;;;;;;3.09;58.45;99919.06;6011148;23;20023;-77
2022/03/25 05:53:55;;;;;;;40.25;14.82;;;;;;;3.25;57.84;99912.72;5999206;23;20027;-76
2022/03/25 05:56:20;;;;;;;50.22;16.80;;;;;;;3.43;58.60;99924.91;6019976;23;20049;-77
2022/03/25 05:58:47;;;;;;;53.88;16.58;;;;;;;3.57;58.13;99919.53;6020327;23;20078;-78
2022/03/25 06:01:13;;;;;;;47.88;15.52;;;;;;;3.77;56.53;99915.56;6044703;23;20493;-76
2022/03/25 06:03:39;;;;;;;70.18;15.95;;;;;;;3.89;55.93;99919.22;6004198;23;20026;-74
2022/03/25 06:06:05;;;;;;;57.22;17.17;;;;;;;4.06;56.24;99918.97;6007319;23;20029;-76
2022/03/25 06:08:32;;;;;;;58.30;16.60;;;;;;;3.89;55.22;99910.34;5968397;23;20131;-79
2022/03/25 06:10:59;;;;;;;55.95;16.67;;;;;;;4.06;54.35;99926.97;6016769;23;20027;-75
2022/03/25 06:13:30;;;;;;;60.50;15.77;;;;;;;4.11;54.18;99935.53;6011854;23;20054;-73
2022/03/25 06:15:56;;;;;;;46.30;16.08;;;;;;;4.07;54.56;99933.19;5973665;23;20023;-76
2022/03/25 06:18:22;;;;;;;59.03;16.27;;;;;;;4.30;54.66;99936.97;5994043;23;20453;-76
2022/03/25 06:20:48;;;;;;;60.97;16.60;;;;;;;4.34;53.59;99941.16;6016717;23;20035;-76
2022/03/25 06:23:14;;;;;;;46.13;15.68;;;;;;;4.41;53.56;99934.41;5991777;23;20470;-73
2022/03/25 06:25:41;;;;;;;47.00;15.52;;;;;;;4.56;52.82;99933.34;5987831;23;20053;-72
2022/03/25 06:28:07;;;;;;;53.63;17.60;;;;;;;4.62;52.43;99942.81;6011129;23;20054;-73
2022/03/25 06:30:35;;;;;;;58.22;17.15;;;;;;;4.73;52.30;99934.03;5988462;23;20099;-70
2022/03/25 06:33:05;;;;;;;76.00;18.70;;;;;;;4.91;53.02;99938.09;5962692;23;20035;-72
2022/03/25 06:35:31;;;;;;;71.97;18.50;;;;;;;5.06;52.14;99936.13;5985681;23;20028;-70
2022/03/25 06:37:57;;;;;;;64.40;18.63;;;;;;;5.27;52.25;99937.28;5998796;23;20023;-68
2022/03/25 06:40:23;;;;;;;60.28;17.15;;;;;;;5.27;52.20;99936.44;5984457;23;20087;-71
2022/03/25 06:42:50;;;;;;;66.70;19.35;;;;;;;5.10;52.06;99944.81;5961811;23;20362;-68
2022/03/25 06:45:17;;;;;;;59.42;18.67;;;;;;;5.15;51.82;99948.00;6009932;23;20034;-68
2022/03/25 06:47:43;;;;;;;73.38;20.33;;;;;;;5.56;51.78;99945.91;5985167;23;20057;-68
2022/03/25 06:50:13;;;;;;;66.45;17.67;;;;;;;5.72;50.89;99940.25;5986239;23;20439;-68
2022/03/25 06:52:39;;;;;;;129.73;24.63;;;;;;;6.01;50.41;99942.63;6008362;23;20483;-70
2022/03/25 06:55:06;;;;;;;68.18;19.75;;;;;;;6.21;50.39;99946.47;5986163;23;20031;-71
2022/03/25 06:57:32;;;;;;;79.50;19.60;;;;;;;6.42;50.19;99947.53;6009057;23;20455;-73
2022/03/25 06:59:58;;;;;;;70.60;18.92;;;;;;;6.42;49.70;99941.31;5985441;23;20334;-74
2022/03/25 07:02:24;;;;;;;74.18;19.13;;;;;;;6.42;49.15;99947.53;6008805;23;20090;-73
2022/03/25 07:04:50;;;;;;;72.72;19.42;;;;;;;6.15;49.20;99945.13;6009358;23;20102;-72
2022/03/25 07:07:19;;;;;;;67.50;21.23;;;;;;;6.06;49.62;99955.69;5988589;23;20027;-73
2022/03/25 07:09:45;;;;;;;68.25;23.00;;;;;;;6.15;49.21;99949.66;6013432;23;20524;-71
2022/03/25 07:12:12;;;;;;;71.50;21.33;;;;;;;6.13;49.64;99954.28;5990275;23;20023;-72
2022/03/25 07:14:38;;;;;;;74.00;21.02;;;;;;;6.17;48.93;99948.53;6037670;23;20055;-73
2022/03/25 07:17:04;;;;;;;81.93;20.75;;;;;;;6.34;49.24;99955.34;6014690;23;20045;-74
2022/03/25 07:19:30;;;;;;;86.03;22.13;;;;;;;6.34;48.51;99943.75;5990970;23;20026;-73
2022/03/25 07:21:56;;;;;;;79.68;23.27;;;;;;;6.58;48.72;99938.28;6014653;23;20134;-73
2022/03/25 07:24:23;;;;;;;67.82;21.42;;;;;;;6.94;47.64;99948.84;6015188;23;20030;-74
2022/03/25 07:26:48;;;;;;;73.22;21.80;;;;;;;7.03;47.43;99925.78;6015153;23;20101;-72
2022/03/25 07:29:14;;;;;;;80.18;21.70;;;;;;;7.49;46.71;99954.34;6037800;23;20054;-75
2022/03/25 07:31:41;;;;;;;92.70;21.33;;;;;;;7.83;46.51;99962.38;6015554;23;20087;-74
2022/03/25 07:34:06;;;;;;;93.55;23.67;;;;;;;7.73;47.01;99951.50;6013201;23;20055;-73
2022/03/25 07:36:33;;;;;;;86.85;23.05;;;;;;;7.65;46.17;99943.22;6038097;23;20026;-73
2022/03/25 07:38:58;;;;;;;90.38;24.15;;;;;;;7.77;45.89;99947.59;6013572;23;20031;-74
2022/03/25 07:41:25;;;;;;;62.70;23.95;;;;;;;7.69;45.89;99950.91;5967087;23;20033;-74
2022/03/25 07:43:53;;;;;;;82.65;25.00;;;;;;;7.85;45.97;99955.03;6013313;23;20031;-72
2022/03/25 07:46:19;;;;;;;81.63;24.48;;;;;;;7.81;45.56;99949.03;6013851;23;20018;-72
2022/03/25 07:48:45;;;;;;;77.43;22.00;;;;;;;7.89;45.45;99960.03;6012987;23;20026;-73
2022/03/25 07:51:11;;;;;;;70.60;22.38;;;;;;;8.14;44.78;99945.38;6014169;23;20345;-74
2022/03/25 07:53:37;;;;;;;71.43;22.05;;;;;;;8.24;44.78;99948.16;6013533;23;20027;-71
2022/03/25 07:56:04;;;;;;;83.50;23.25;;;;;;;8.75;43.93;99949.28;5990580;23;20065;-73
2022/03/25 07:58:29;;;;;;;64.60;21.27;;;;;;;8.68;43.33;99938.16;6012352;23;20030;-72
2022/03/25 08:00:55;;;;;;;74.85;21.63;;;;;;;8.53;42.65;99934.94;6013683;23;20074;-72
2022/03/25 08:03:21;;;;;;;72.63;22.48;;;;;;;8.74;42.90;99942.16;6036954;23;20408;-71
2022/03/25 08:05:48;;;;;;;64.97;22.75;;;;;;;8.42;43.50;99914.31;6051968;23;20023;-74
2022/03/25 08:08:16;;;;;;;60.58;21.23;;;;;;;8.63;44.12;99932.34;5984656;23;20023;-74
2022/03/25 08:10:42;;;;;;;84.57;21.52;;;;;;;8.83;43.79;99931.44;5984870;23;20024;-73
2022/03/25 08:13:09;;;;;;;60.25;21.83;;;;;;;8.40;43.45;99945.91;5985326;23;20037;-73
2022/03/25 08:15:35;;;;;;;57.58;21.33;;;;;;;8.21;44.35;99926.88;5986649;23;20037;-77
2022/03/25 08:18:04;;;;;;;62.38;21.20;;;;;;;8.06;44.82;99922.78;5991711;23;20039;-81
2022/03/25 08:20:41;;;;;;;60.97;20.52;;;;;;;8.14;45.39;99933.75;5968436;23;20090;-75
2022/03/25 08:23:11;;;;;;;54.25;21.27;;;;;;;8.11;45.22;99944.78;5989548;23;20027;-76
2022/03/25 08:28:22;;;;;;;50.00;20.45;;;;;;;8.41;43.68;99931.47;5994037;23;20027;-76
2022/03/25 08:30:48;;;;;;;56.53;21.63;;;;;;;7.84;44.75;99916.50;5988133;23;20110;-76
2022/03/25 08:33:15;;;;;;;51.35;19.98;;;;;;;7.93;45.36;99926.50;5989575;23;20061;-74
2022/03/25 08:35:42;;;;;;;47.22;20.52;;;;;;;8.14;45.50;99934.59;5959881;23;20027;-72
2022/03/25 08:38:09;;;;;;;57.30;20.55;;;;;;;8.12;45.77;99924.97;5996393;23;20054;-73
2022/03/25 08:40:36;;;;;;;58.45;21.08;;;;;;;8.27;45.31;99925.50;6025758;23;20027;-71
2022/03/25 08:43:02;;;;;;;44.20;19.67;;;;;;;8.37;45.08;99924.63;5988102;23;20019;-76
2022/03/25 08:45:29;;;;;;;55.42;19.77;;;;;;;8.19;45.16;99926.13;6037424;23;20046;-74
2022/03/25 08:47:55;;;;;;;61.85;20.77;;;;;;;8.73;44.70;99930.53;6004161;23;20517;-72
2022/03/25 08:50:22;;;;;;;53.53;21.27;;;;;;;8.21;44.85;99921.50;5984493;23;20027;-75
2022/03/25 08:52:49;;;;;;;50.72;20.83;;;;;;;8.42;44.51;99917.00;5986728;23;20054;-75
2022/03/25 08:55:16;;;;;;;69.05;19.98;;;;;;;8.64;44.29;99918.72;5987449;23;20092;-75
2022/03/25 08:57:43;;;;;;;47.20;19.42;;;;;;;8.21;44.19;99921.50;5958370;23;20083;-75
2022/03/25 09:00:11;;;;;;;46.05;20.83;;;;;;;8.21;44.79;99913.41;5983856;23;20031;-76
2022/03/25 09:02:43;;;;;;;45.97;19.40;;;;;;;7.92;44.44;99891.63;5986445;23;20542;-78
2022/03/25 09:05:10;;;;;;;53.00;19.08;;;;;;;8.15;45.29;99913.91;5986967;23;20038;-75
2022/03/25 09:07:37;;;;;;;48.05;20.15;;;;;;;8.06;45.63;99912.00;5981800;23;20038;-76
2022/03/25 09:10:04;;;;;;;52.53;20.17;;;;;;;8.18;45.88;99919.03;5986057;23;20039;-74
2022/03/25 09:12:30;;;;;;;53.75;18.10;;;;;;;8.33;45.86;99916.91;5961547;23;20023;-75
2022/03/25 09:14:56;;;;;;;54.85;18.80;;;;;;;8.21;45.87;99913.41;5986267;23;20118;-79
2022/03/25 09:17:22;;;;;;;47.03;17.85;;;;;;;8.35;45.53;99918.47;5934467;23;20019;-72
2022/03/25 09:19:48;;;;;;;59.00;18.67;;;;;;;8.35;44.71;99915.78;6004996;23;20407;-73
2022/03/25 09:22:14;;;;;;;49.40;19.42;;;;;;;8.30;44.46;99911.75;5964343;23;20023;-76
2022/03/25 09:24:39;;;;;;;46.60;17.42;;;;;;;8.34;44.24;99902.47;5987838;23;20031;-72
2022/03/25 09:27:05;;;;;;;54.17;19.23;;;;;;;8.31;44.93;99908.94;5983892;23;20046;-73
2022/03/25 09:29:31;;;;;;;39.95;18.10;;;;;;;8.40;45.07;99908.19;5958282;23;20126;-77
2022/03/25 09:31:57;;;;;;;52.28;19.67;;;;;;;8.37;44.56;99908.47;5964625;23;20027;-74
2022/03/25 09:37:07;;;;;;;42.08;15.05;;;;;;;8.93;41.82;99908.09;5987404;23;20019;-74
2022/03/25 09:39:33;;;;;;;44.65;14.45;;;;;;;9.02;41.40;99914.50;5979598;23;20570;-75
2022/03/25 09:41:59;;;;;;;31.10;13.77;;;;;;;8.84;40.62;99906.19;6008315;23;20320;-71
2022/03/25 09:44:25;;;;;;;40.85;14.23;;;;;;;9.07;40.37;99892.56;5984034;23;20568;-74
2022/03/25 09:46:51;;;;;;;37.90;14.32;;;;;;;9.05;40.09;99905.31;5981858;23;20123;-76
2022/03/25 09:49:18;;;;;;;41.35;16.23;;;;;;;9.03;39.68;99909.97;5978165;23;20041;-77
2022/03/25 09:51:45;;;;;;;32.00;14.75;;;;;;;9.17;39.74;99902.38;5979922;23;20019;-72
2022/03/25 09:54:16;;;;;;;40.72;14.65;;;;;;;9.61;39.73;99905.63;6007222;23;20591;-76
2022/03/25 09:56:42;;;;;;;30.35;13.68;;;;;;;9.73;38.95;99898.28;5987551;23;20034;-72
2022/03/25 09:59:08;;;;;;;40.78;14.18;;;;;;;10.13;37.82;99908.13;5980542;23;20114;-72
2022/03/25 10:01:35;;;;;;;37.72;13.68;;;;;;;10.17;37.99;99906.84;6011437;23;20062;-74
2022/03/25 10:04:01;;;;;;;39.30;14.35;;;;;;;10.47;37.80;99905.00;5986347;23;20031;-74
2022/03/25 10:06:27;;;;;;;49.67;15.60;;;;;;;10.32;38.15;99904.59;6003298;23;20027;-73
2022/03/25 10:08:58;;;;;;;37.67;14.38;;;;;;;10.58;37.16;99896.72;6028303;23;20035;-73
2022/03/25 10:11:30;;;;;;;40.17;15.25;;;;;;;10.19;37.67;99893.16;5967918;23;20042;-73
2022/03/25 10:14:19;;;;;;;33.67;13.85;;;;;;;10.20;38.19;99900.28;6015085;23;20064;-72
2022/03/25 10:16:50;;;;;;;39.17;15.98;;;;;;;10.05;38.07;99895.28;5990662;23;20080;-72
2022/03/25 10:19:20;;;;;;;36.88;14.73;;;;;;;10.09;37.83;99888.63;6031763;23;20381;-73
2022/03/25 10:21:51;;;;;;;37.28;15.15;;;;;;;10.50;38.03;99891.19;6018094;23;20027;-74
2022/03/25 10:24:19;;;;;;;40.22;15.65;;;;;;;10.40;37.60;99890.34;6016521;23;20034;-74
2022/03/25 10:26:46;;;;;;;37.25;15.45;;;;;;;10.83;36.99;99890.69;5990809;23;20018;-74
2022/03/25 10:29:22;;;;;;;36.95;14.68;;;;;;;11.25;36.57;99884.81;6007069;23;20027;-74
2022/03/25 10:32:04;;;;;;;;;;;;;;;10.90;36.81;99884.69;5992914;23;20083;-74
2022/03/25 10:34:30;;;;;;;41.22;16.95;;;;;;;10.41;37.19;99881.25;6014922;23;19939;-73
2022/03/25 10:37:01;;;;;;;42.65;15.57;;;;;;;10.27;37.53;99880.66;6015461;23;20354;-73
2022/03/25 10:39:31;;;;;;;43.40;17.77;;;;;;;10.78;37.47;99874.03;6010182;23;20070;-77
2022/03/25 10:41:59;;;;;;;36.55;16.27;;;;;;;11.28;36.22;99884.50;5994160;23;20053;-75
2022/03/25 10:44:42;;;;;;;37.65;14.75;;;;;;;12.07;34.93;99874.91;6014485;23;20035;-74
2022/03/25 10:47:20;;;;;;;42.88;15.70;;;;;;;11.76;36.20;99875.25;6011506;23;20018;-74
2022/03/25 10:49:48;;;;;;;45.85;16.50;;;;;;;11.63;35.46;99877.50;6008268;23;20103;-75
2022/03/25 10:52:32;;;;;;;36.97;14.57;;;;;;;11.77;35.73;99865.25;6013353;23;20508;-76
2022/03/25 10:55:19;;;;;;;39.67;16.77;;;;;;;11.31;35.95;99875.25;5990735;23;20061;-74
2022/03/25 10:57:55;;;;;;;32.42;15.43;;;;;;;11.42;36.31;99871.50;6007440;23;20027;-73
2022/03/25 11:00:23;;;;;;;36.88;15.75;;;;;;;11.01;37.77;99873.69;6060449;23;20035;-75
2022/03/25 11:02:49;;;;;;;46.42;17.95;;;;;;;11.41;36.93;99869.75;6053027;23;20038;-73
2022/03/25 11:05:16;;;;;;;42.45;16.42;;;;;;;11.48;36.97;99871.75;6016027;23;20107;-73
2022/03/25 11:07:44;;;;;;;38.58;16.13;;;;;;;11.43;36.62;99867.78;6031989;23;20026;-71
2022/03/25 11:10:13;;;;;;;36.30;16.13;;;;;;;11.82;36.58;99863.81;6034763;23;20064;-75
2022/03/25 11:12:47;;;;;;;29.42;14.95;;;;;;;11.61;37.75;99865.94;6038314;23;20502;-73
2022/03/25 11:15:18;;;;;;;34.35;13.73;;;;;;;11.51;37.46;99838.06;5990367;23;20050;-73
2022/03/25 11:17:45;;;;;;;35.08;13.25;;;;;;;11.35;38.48;99855.84;6007130;23;20461;-71
2022/03/25 11:20:13;;;;;;;30.90;13.38;;;;;;;11.51;37.43;99857.03;6010504;23;20615;-69
2022/03/25 11:22:55;;;;;;;25.17;12.10;;;;;;;11.37;37.95;99854.84;6036842;23;20150;-75
2022/03/25 11:25:22;;;;;;;37.05;13.32;;;;;;;11.36;38.37;99859.41;6031445;23;20057;-75
2022/03/25 11:27:53;;;;;;;26.20;12.30;;;;;;;11.19;39.22;99852.97;6028621;23;20019;-73